Airfield :
LOGIN :

Register | Disclaimer

   EN    FR    IT 

 










Legend :    VFR   Marginal VFR   IFR   Intensive IFR   Very Intensive IFR
Visi :
Ceiling :
>= 8 km
>= 3000ft
5 to 8 km
1000 to 3000 ft
1500m to 5 km
500 to 1000 ft
800 to 1500m
200 to 500 ft
< 800m
< 200 ft
Symbols :   Thunderstorms  Fog  Heavy snow  Heavy precipitations  Wind > 20 kt
SIGMETs :     Misc.  Thunderstorms  Icing  Turbulence  Mountain Waves  Volcanic Ashes






- Airport Elevation : 479 ft
- IATA code : DOL


LFRG - Deauville

CURRENT METAR :
  • 241300Z AUTO 20014KT 180V240 9999 SCT043 BKN049 BKN056 16/08 Q0999 TEMPO 18020G35KT 2000 +TSRA BKN015CB

EXPIRED METARs :
  • 241230Z AUTO 21014KT 180V240 9999 SCT040 BKN047 17/08 Q0999 TEMPO 18020G35KT 2000 +TSRA BKN015CB
  • 241200Z AUTO 21014KT 170V240 9999 FEW033 BKN041 BKN049 16/08 Q1000 TEMPO 18020G35KT 2000 +TSRA BKN015CB
  • 241130Z AUTO 20013KT 9999 BKN032 BKN052 BKN120 15/09 Q1000 TEMPO 18020G35KT 2000 +TSRA BKN015CB
  • 241100Z AUTO 19013KT 160V230 9999 SCT026 BKN032 14/09 Q1001 TEMPO 18020G35KT 2000 +TSRA BKN015CB
  • 241030Z AUTO 20013KT 150V230 9999 BKN023 BKN028 14/10 Q1001 TEMPO 18020G35KT 2000 +TSRA BKN015CB

TAF TAF LFRG
Valid from the 24 at 12:00 until the 24 at 21:00 UTC


241100Z 2412/2421 18015G25KT 9999 BKN040
TEMPO 2412/2418 4000 SHRA SCT015CB BKN020TCU
PROB30
TEMPO 2412/2418 18020G35KT 2000 +TSRA BKN015CB
TEMPO 2418/2421 CAVOK
ATIS : +33 2 31 65 65 36



MET'MAP, your aeronautical weather chart ! - Copyright ORBIFLY December 2007 - Disclaimer

ORBIFLY MET'MAP TEAM :

Programming & Development : Alexandra Zaïnal
Concept & original design : Baudouin d'Aumeries
Assistance for programming : Marc-Olivier Méhu
Technical & hardware support : Manuel Goepfert

Contact : metmap@orbifly.com




SOURCES & CREDITS :

   NOAA